sensor_id;sensor_type;location;lat;lon;timestamp;temperature;humidity
17348;DHT22;8791;50.876;4.342;2023-11-21T00:01:16;10.60;99.90
17348;DHT22;8791;50.876;4.342;2023-11-21T00:03:43;10.40;99.90
17348;DHT22;8791;50.876;4.342;2023-11-21T00:06:10;10.30;99.90
17348;DHT22;8791;50.876;4.342;2023-11-21T00:08:37;10.20;99.90
17348;DHT22;8791;50.876;4.342;2023-11-21T00:11:04;10.20;99.90
17348;DHT22;8791;50.876;4.342;2023-11-21T00:13:31;10.10;99.90
17348;DHT22;8791;50.876;4.342;2023-11-21T00:15:59;10.10;99.90
17348;DHT22;8791;50.876;4.342;2023-11-21T00:18:27;10.10;99.90
17348;DHT22;8791;50.876;4.342;2023-11-21T00:20:54;10.10;99.90
17348;DHT22;8791;50.876;4.342;2023-11-21T00:23:21;10.10;99.90
17348;DHT22;8791;50.876;4.342;2023-11-21T00:25:49;10.10;99.90
17348;DHT22;8791;50.876;4.342;2023-11-21T00:28:16;10.10;99.90
17348;DHT22;8791;50.876;4.342;2023-11-21T00:30:43;10.00;99.90
17348;DHT22;8791;50.876;4.342;2023-11-21T00:33:10;10.00;99.90
17348;DHT22;8791;50.876;4.342;2023-11-21T00:35:38;10.00;99.90
17348;DHT22;8791;50.876;4.342;2023-11-21T00:38:05;10.00;99.90
17348;DHT22;8791;50.876;4.342;2023-11-21T00:40:34;10.00;99.90
17348;DHT22;8791;50.876;4.342;2023-11-21T00:43:00;9.80;99.90
17348;DHT22;8791;50.876;4.342;2023-11-21T00:45:27;9.70;99.90
17348;DHT22;8791;50.876;4.342;2023-11-21T00:47:54;9.70;99.90
17348;DHT22;8791;50.876;4.342;2023-11-21T00:50:21;9.60;99.90
17348;DHT22;8791;50.876;4.342;2023-11-21T00:52:49;9.60;99.90
17348;DHT22;8791;50.876;4.342;2023-11-21T00:55:17;9.80;99.90
17348;DHT22;8791;50.876;4.342;2023-11-21T00:57:44;9.80;99.90
17348;DHT22;8791;50.876;4.342;2023-11-21T01:00:12;9.90;99.90
17348;DHT22;8791;50.876;4.342;2023-11-21T01:02:42;9.90;99.90
17348;DHT22;8791;50.876;4.342;2023-11-21T01:05:10;10.00;99.90
17348;DHT22;8791;50.876;4.342;2023-11-21T01:07:36;9.90;99.90
17348;DHT22;8791;50.876;4.342;2023-11-21T01:10:05;9.90;99.90
17348;DHT22;8791;50.876;4.342;2023-11-21T01:12:33;10.00;99.90
17348;DHT22;8791;50.876;4.342;2023-11-21T01:15:00;10.00;99.90
17348;DHT22;8791;50.876;4.342;2023-11-21T01:17:28;10.10;99.90
17348;DHT22;8791;50.876;4.342;2023-11-21T01:19:55;10.10;99.90
17348;DHT22;8791;50.876;4.342;2023-11-21T01:22:23;10.10;99.90
17348;DHT22;8791;50.876;4.342;2023-11-21T01:24:51;10.00;99.90
17348;DHT22;8791;50.876;4.342;2023-11-21T01:27:20;10.10;99.90
17348;DHT22;8791;50.876;4.342;2023-11-21T01:29:46;10.10;99.90
17348;DHT22;8791;50.876;4.342;2023-11-21T01:32:13;10.10;99.90
17348;DHT22;8791;50.876;4.342;2023-11-21T01:34:40;10.10;99.90
17348;DHT22;8791;50.876;4.342;2023-11-21T01:37:07;10.10;99.90
17348;DHT22;8791;50.876;4.342;2023-11-21T01:39:34;10.20;99.90
17348;DHT22;8791;50.876;4.342;2023-11-21T01:42:05;10.20;99.90
17348;DHT22;8791;50.876;4.342;2023-11-21T01:44:34;10.20;99.90
17348;DHT22;8791;50.876;4.342;2023-11-21T01:47:02;10.30;99.90
17348;DHT22;8791;50.876;4.342;2023-11-21T01:49:31;10.30;99.90
17348;DHT22;8791;50.876;4.342;2023-11-21T01:51:59;10.40;99.90
17348;DHT22;8791;50.876;4.342;2023-11-21T01:54:26;10.30;99.90
17348;DHT22;8791;50.876;4.342;2023-11-21T01:56:57;10.20;99.90
17348;DHT22;8791;50.876;4.342;2023-11-21T01:59:36;10.20;99.90
17348;DHT22;8791;50.876;4.342;2023-11-21T02:02:03;10.10;99.90
17348;DHT22;8791;50.876;4.342;2023-11-21T02:04:31;10.20;99.90
17348;DHT22;8791;50.876;4.342;2023-11-21T02:06:59;10.40;99.90
17348;DHT22;8791;50.876;4.342;2023-11-21T02:09:27;10.50;99.90
17348;DHT22;8791;50.876;4.342;2023-11-21T02:11:56;10.40;99.90
17348;DHT22;8791;50.876;4.342;2023-11-21T02:14:25;10.60;99.90
17348;DHT22;8791;50.876;4.342;2023-11-21T02:16:55;10.60;99.90
17348;DHT22;8791;50.876;4.342;2023-11-21T02:19:23;10.70;99.90
17348;DHT22;8791;50.876;4.342;2023-11-21T02:21:51;10.80;99.90
17348;DHT22;8791;50.876;4.342;2023-11-21T02:24:21;10.70;99.90
17348;DHT22;8791;50.876;4.342;2023-11-21T02:26:48;10.50;99.90
17348;DHT22;8791;50.876;4.342;2023-11-21T02:29:16;10.50;99.90
17348;DHT22;8791;50.876;4.342;2023-11-21T02:31:45;10.50;99.90
17348;DHT22;8791;50.876;4.342;2023-11-21T02:34:14;10.50;99.90
17348;DHT22;8791;50.876;4.342;2023-11-21T02:36:42;10.50;99.90
17348;DHT22;8791;50.876;4.342;2023-11-21T02:39:09;10.60;99.90
17348;DHT22;8791;50.876;4.342;2023-11-21T02:41:37;10.40;99.90
17348;DHT22;8791;50.876;4.342;2023-11-21T02:44:05;10.50;99.90
17348;DHT22;8791;50.876;4.342;2023-11-21T02:46:33;10.60;99.90
17348;DHT22;8791;50.876;4.342;2023-11-21T02:49:00;10.60;99.90
17348;DHT22;8791;50.876;4.342;2023-11-21T02:51:27;10.60;99.90
17348;DHT22;8791;50.876;4.342;2023-11-21T02:53:54;10.70;99.90
17348;DHT22;8791;50.876;4.342;2023-11-21T02:56:24;10.60;99.90
17348;DHT22;8791;50.876;4.342;2023-11-21T02:59:02;10.60;99.90
17348;DHT22;8791;50.876;4.342;2023-11-21T03:01:29;10.60;99.90
17348;DHT22;8791;50.876;4.342;2023-11-21T03:03:58;10.80;99.90
17348;DHT22;8791;50.876;4.342;2023-11-21T03:06:25;10.70;99.90
17348;DHT22;8791;50.876;4.342;2023-11-21T03:08:52;10.70;99.90
17348;DHT22;8791;50.876;4.342;2023-11-21T03:11:18;11.00;99.90
17348;DHT22;8791;50.876;4.342;2023-11-21T03:13:53;11.10;99.90
17348;DHT22;8791;50.876;4.342;2023-11-21T03:16:21;11.10;99.90
17348;DHT22;8791;50.876;4.342;2023-11-21T03:18:48;11.00;99.90
17348;DHT22;8791;50.876;4.342;2023-11-21T03:21:17;10.80;99.90
17348;DHT22;8791;50.876;4.342;2023-11-21T03:23:50;10.80;99.90
17348;DHT22;8791;50.876;4.342;2023-11-21T03:26:18;10.70;99.90
17348;DHT22;8791;50.876;4.342;2023-11-21T03:28:45;10.60;99.90
17348;DHT22;8791;50.876;4.342;2023-11-21T03:31:11;10.70;99.90
17348;DHT22;8791;50.876;4.342;2023-11-21T03:33:40;10.60;99.90
17348;DHT22;8791;50.876;4.342;2023-11-21T03:36:07;10.40;99.90
17348;DHT22;8791;50.876;4.342;2023-11-21T03:38:34;10.50;99.90
17348;DHT22;8791;50.876;4.342;2023-11-21T03:41:01;10.50;99.90
17348;DHT22;8791;50.876;4.342;2023-11-21T03:43:28;10.60;99.90
17348;DHT22;8791;50.876;4.342;2023-11-21T03:45:55;10.50;99.90
17348;DHT22;8791;50.876;4.342;2023-11-21T03:48:22;10.60;99.90
17348;DHT22;8791;50.876;4.342;2023-11-21T03:50:50;10.80;99.90
17348;DHT22;8791;50.876;4.342;2023-11-21T03:53:17;10.90;99.90
17348;DHT22;8791;50.876;4.342;2023-11-21T03:55:44;10.70;99.90
17348;DHT22;8791;50.876;4.342;2023-11-21T03:58:11;10.60;99.90
17348;DHT22;8791;50.876;4.342;2023-11-21T04:00:38;10.50;99.90
17348;DHT22;8791;50.876;4.342;2023-11-21T04:03:04;10.50;99.90
17348;DHT22;8791;50.876;4.342;2023-11-21T04:05:31;10.50;99.90
17348;DHT22;8791;50.876;4.342;2023-11-21T04:07:59;10.60;99.90
17348;DHT22;8791;50.876;4.342;2023-11-21T04:10:26;10.70;99.90
17348;DHT22;8791;50.876;4.342;2023-11-21T04:12:54;10.60;99.90
17348;DHT22;8791;50.876;4.342;2023-11-21T04:15:21;10.60;99.90
17348;DHT22;8791;50.876;4.342;2023-11-21T04:17:48;10.50;99.90
17348;DHT22;8791;50.876;4.342;2023-11-21T04:20:15;10.60;99.90
17348;DHT22;8791;50.876;4.342;2023-11-21T04:22:43;10.60;99.90
17348;DHT22;8791;50.876;4.342;2023-11-21T04:25:13;10.70;99.90
17348;DHT22;8791;50.876;4.342;2023-11-21T04:27:41;10.70;99.90
17348;DHT22;8791;50.876;4.342;2023-11-21T04:30:09;10.50;99.90
17348;DHT22;8791;50.876;4.342;2023-11-21T04:32:36;10.30;99.90
17348;DHT22;8791;50.876;4.342;2023-11-21T04:35:05;10.20;99.90
17348;DHT22;8791;50.876;4.342;2023-11-21T04:37:32;10.10;99.90
17348;DHT22;8791;50.876;4.342;2023-11-21T04:39:59;10.10;99.90
17348;DHT22;8791;50.876;4.342;2023-11-21T04:42:27;10.20;99.90
17348;DHT22;8791;50.876;4.342;2023-11-21T04:44:54;10.30;99.90
17348;DHT22;8791;50.876;4.342;2023-11-21T04:47:21;10.50;99.90
17348;DHT22;8791;50.876;4.342;2023-11-21T04:49:48;10.60;99.90
17348;DHT22;8791;50.876;4.342;2023-11-21T04:52:15;10.70;99.90
17348;DHT22;8791;50.876;4.342;2023-11-21T04:54:42;10.60;99.90
17348;DHT22;8791;50.876;4.342;2023-11-21T04:57:09;10.50;99.90
17348;DHT22;8791;50.876;4.342;2023-11-21T04:59:37;10.50;99.90
17348;DHT22;8791;50.876;4.342;2023-11-21T05:02:04;10.40;99.90
17348;DHT22;8791;50.876;4.342;2023-11-21T05:04:31;10.50;99.90
17348;DHT22;8791;50.876;4.342;2023-11-21T05:06:58;10.60;99.90
17348;DHT22;8791;50.876;4.342;2023-11-21T05:09:26;10.60;99.90
17348;DHT22;8791;50.876;4.342;2023-11-21T05:11:54;10.60;99.90
17348;DHT22;8791;50.876;4.342;2023-11-21T05:14:21;10.50;99.90
17348;DHT22;8791;50.876;4.342;2023-11-21T05:16:50;10.60;99.90
17348;DHT22;8791;50.876;4.342;2023-11-21T05:19:17;10.80;99.90
17348;DHT22;8791;50.876;4.342;2023-11-21T05:21:44;10.80;99.90
17348;DHT22;8791;50.876;4.342;2023-11-21T05:24:11;10.80;99.90
17348;DHT22;8791;50.876;4.342;2023-11-21T05:26:38;10.70;99.90
17348;DHT22;8791;50.876;4.342;2023-11-21T05:29:05;10.80;99.90
17348;DHT22;8791;50.876;4.342;2023-11-21T05:31:32;10.80;99.90
17348;DHT22;8791;50.876;4.342;2023-11-21T05:34:00;10.60;99.90
17348;DHT22;8791;50.876;4.342;2023-11-21T05:36:27;10.60;99.90
17348;DHT22;8791;50.876;4.342;2023-11-21T05:38:54;10.60;99.90
17348;DHT22;8791;50.876;4.342;2023-11-21T05:41:21;10.60;99.90
17348;DHT22;8791;50.876;4.342;2023-11-21T05:43:48;10.60;99.90
17348;DHT22;8791;50.876;4.342;2023-11-21T05:46:15;10.60;99.90
17348;DHT22;8791;50.876;4.342;2023-11-21T05:48:43;10.70;99.90
17348;DHT22;8791;50.876;4.342;2023-11-21T05:51:12;10.70;99.90
17348;DHT22;8791;50.876;4.342;2023-11-21T05:53:39;10.80;99.90
17348;DHT22;8791;50.876;4.342;2023-11-21T05:56:06;10.70;99.90
17348;DHT22;8791;50.876;4.342;2023-11-21T05:58:33;10.70;99.90
17348;DHT22;8791;50.876;4.342;2023-11-21T06:01:00;10.60;99.90
17348;DHT22;8791;50.876;4.342;2023-11-21T06:03:28;10.70;99.90
17348;DHT22;8791;50.876;4.342;2023-11-21T06:05:55;10.80;99.90
17348;DHT22;8791;50.876;4.342;2023-11-21T06:08:23;10.80;99.90
17348;DHT22;8791;50.876;4.342;2023-11-21T06:10:50;10.80;99.90
17348;DHT22;8791;50.876;4.342;2023-11-21T06:13:17;10.90;99.90
17348;DHT22;8791;50.876;4.342;2023-11-21T06:15:49;10.80;99.90
17348;DHT22;8791;50.876;4.342;2023-11-21T06:18:16;10.80;99.90
17348;DHT22;8791;50.876;4.342;2023-11-21T06:20:44;10.90;99.90
17348;DHT22;8791;50.876;4.342;2023-11-21T06:23:11;10.90;99.90
17348;DHT22;8791;50.876;4.342;2023-11-21T06:25:40;11.00;99.90
17348;DHT22;8791;50.876;4.342;2023-11-21T06:28:08;10.90;99.90
17348;DHT22;8791;50.876;4.342;2023-11-21T06:30:34;10.90;99.90
17348;DHT22;8791;50.876;4.342;2023-11-21T06:33:01;10.80;99.90
17348;DHT22;8791;50.876;4.342;2023-11-21T06:35:28;10.80;99.90
17348;DHT22;8791;50.876;4.342;2023-11-21T06:37:58;10.90;99.90
17348;DHT22;8791;50.876;4.342;2023-11-21T06:40:24;10.90;99.90
17348;DHT22;8791;50.876;4.342;2023-11-21T06:42:53;10.70;99.90
17348;DHT22;8791;50.876;4.342;2023-11-21T06:45:20;10.80;99.90
17348;DHT22;8791;50.876;4.342;2023-11-21T06:47:47;10.80;99.90
17348;DHT22;8791;50.876;4.342;2023-11-21T06:50:14;10.90;99.90
17348;DHT22;8791;50.876;4.342;2023-11-21T06:52:41;10.80;99.90
17348;DHT22;8791;50.876;4.342;2023-11-21T06:55:09;10.90;99.90
17348;DHT22;8791;50.876;4.342;2023-11-21T06:57:36;11.00;99.90
17348;DHT22;8791;50.876;4.342;2023-11-21T07:00:09;11.00;99.90
17348;DHT22;8791;50.876;4.342;2023-11-21T07:02:35;10.90;99.90
17348;DHT22;8791;50.876;4.342;2023-11-21T07:05:03;10.90;99.90
17348;DHT22;8791;50.876;4.342;2023-11-21T07:07:30;11.00;99.90
17348;DHT22;8791;50.876;4.342;2023-11-21T07:09:57;11.00;99.90
17348;DHT22;8791;50.876;4.342;2023-11-21T07:12:28;11.00;99.90
17348;DHT22;8791;50.876;4.342;2023-11-21T07:14:55;11.00;99.90
17348;DHT22;8791;50.876;4.342;2023-11-21T07:17:24;11.10;99.90
17348;DHT22;8791;50.876;4.342;2023-11-21T07:19:52;11.00;99.90
17348;DHT22;8791;50.876;4.342;2023-11-21T07:22:18;11.10;99.90
17348;DHT22;8791;50.876;4.342;2023-11-21T07:24:48;11.00;99.90
17348;DHT22;8791;50.876;4.342;2023-11-21T07:27:16;11.10;99.90
17348;DHT22;8791;50.876;4.342;2023-11-21T07:29:43;11.00;99.90
17348;DHT22;8791;50.876;4.342;2023-11-21T07:32:10;11.10;99.90
17348;DHT22;8791;50.876;4.342;2023-11-21T07:34:40;11.20;99.90
17348;DHT22;8791;50.876;4.342;2023-11-21T07:37:08;11.20;99.90
17348;DHT22;8791;50.876;4.342;2023-11-21T07:39:35;11.20;99.90
17348;DHT22;8791;50.876;4.342;2023-11-21T07:42:02;11.20;99.90
17348;DHT22;8791;50.876;4.342;2023-11-21T07:44:30;11.10;99.90
17348;DHT22;8791;50.876;4.342;2023-11-21T07:46:56;11.20;99.90
17348;DHT22;8791;50.876;4.342;2023-11-21T07:49:23;11.10;99.90
17348;DHT22;8791;50.876;4.342;2023-11-21T07:51:53;11.10;99.90
17348;DHT22;8791;50.876;4.342;2023-11-21T07:54:20;11.20;99.90
17348;DHT22;8791;50.876;4.342;2023-11-21T07:56:47;11.20;99.90
17348;DHT22;8791;50.876;4.342;2023-11-21T07:59:14;11.30;99.90
17348;DHT22;8791;50.876;4.342;2023-11-21T08:01:40;11.30;99.90
17348;DHT22;8791;50.876;4.342;2023-11-21T08:04:08;11.30;99.90
17348;DHT22;8791;50.876;4.342;2023-11-21T08:06:35;11.40;99.90
17348;DHT22;8791;50.876;4.342;2023-11-21T08:09:03;11.30;99.90
17348;DHT22;8791;50.876;4.342;2023-11-21T08:11:30;11.30;99.90
17348;DHT22;8791;50.876;4.342;2023-11-21T08:13:58;11.30;99.90
17348;DHT22;8791;50.876;4.342;2023-11-21T08:16:25;11.30;99.90
17348;DHT22;8791;50.876;4.342;2023-11-21T08:18:53;11.30;99.90
17348;DHT22;8791;50.876;4.342;2023-11-21T08:21:22;11.40;99.90
17348;DHT22;8791;50.876;4.342;2023-11-21T08:23:50;11.30;99.90
17348;DHT22;8791;50.876;4.342;2023-11-21T08:26:21;11.40;99.90
17348;DHT22;8791;50.876;4.342;2023-11-21T08:28:49;11.40;99.90
17348;DHT22;8791;50.876;4.342;2023-11-21T08:31:22;11.50;99.90
17348;DHT22;8791;50.876;4.342;2023-11-21T08:33:49;11.50;99.90
17348;DHT22;8791;50.876;4.342;2023-11-21T08:36:16;11.50;99.90
17348;DHT22;8791;50.876;4.342;2023-11-21T08:38:43;11.50;99.90
17348;DHT22;8791;50.876;4.342;2023-11-21T08:41:10;11.60;99.90
17348;DHT22;8791;50.876;4.342;2023-11-21T08:43:39;11.60;99.90
17348;DHT22;8791;50.876;4.342;2023-11-21T08:46:06;11.60;99.90
17348;DHT22;8791;50.876;4.342;2023-11-21T08:48:35;11.70;99.90
17348;DHT22;8791;50.876;4.342;2023-11-21T08:51:02;11.60;99.90
17348;DHT22;8791;50.876;4.342;2023-11-21T08:53:30;11.40;99.90
17348;DHT22;8791;50.876;4.342;2023-11-21T08:55:58;11.60;99.90
17348;DHT22;8791;50.876;4.342;2023-11-21T08:58:25;11.40;99.90
17348;DHT22;8791;50.876;4.342;2023-11-21T09:00:53;11.50;99.90
17348;DHT22;8791;50.876;4.342;2023-11-21T09:03:20;11.60;99.90
17348;DHT22;8791;50.876;4.342;2023-11-21T09:05:47;11.60;99.90
17348;DHT22;8791;50.876;4.342;2023-11-21T09:08:14;11.60;99.90
17348;DHT22;8791;50.876;4.342;2023-11-21T09:10:41;11.80;99.90
17348;DHT22;8791;50.876;4.342;2023-11-21T09:13:08;11.90;99.90
17348;DHT22;8791;50.876;4.342;2023-11-21T09:15:35;11.80;99.90
17348;DHT22;8791;50.876;4.342;2023-11-21T09:18:04;11.90;99.90
17348;DHT22;8791;50.876;4.342;2023-11-21T09:20:31;11.80;99.90
17348;DHT22;8791;50.876;4.342;2023-11-21T09:22:58;11.70;99.90
17348;DHT22;8791;50.876;4.342;2023-11-21T09:25:25;11.60;99.90
17348;DHT22;8791;50.876;4.342;2023-11-21T09:27:54;11.70;99.90
17348;DHT22;8791;50.876;4.342;2023-11-21T09:30:21;11.70;99.90
17348;DHT22;8791;50.876;4.342;2023-11-21T09:32:50;11.80;99.90
17348;DHT22;8791;50.876;4.342;2023-11-21T09:35:18;11.90;99.90
17348;DHT22;8791;50.876;4.342;2023-11-21T09:37:45;11.90;99.90
17348;DHT22;8791;50.876;4.342;2023-11-21T09:40:12;11.90;99.90
17348;DHT22;8791;50.876;4.342;2023-11-21T09:42:49;12.00;99.90
17348;DHT22;8791;50.876;4.342;2023-11-21T09:45:21;12.10;99.90
17348;DHT22;8791;50.876;4.342;2023-11-21T09:47:49;12.10;99.90
17348;DHT22;8791;50.876;4.342;2023-11-21T09:50:20;12.10;99.90
17348;DHT22;8791;50.876;4.342;2023-11-21T09:52:54;12.30;99.90
17348;DHT22;8791;50.876;4.342;2023-11-21T09:55:27;12.10;99.90
17348;DHT22;8791;50.876;4.342;2023-11-21T09:57:56;11.90;99.90
17348;DHT22;8791;50.876;4.342;2023-11-21T10:00:23;12.00;99.90
17348;DHT22;8791;50.876;4.342;2023-11-21T10:02:52;11.90;99.90
17348;DHT22;8791;50.876;4.342;2023-11-21T10:05:20;11.80;99.90
17348;DHT22;8791;50.876;4.342;2023-11-21T10:07:48;11.60;99.90
17348;DHT22;8791;50.876;4.342;2023-11-21T10:10:18;11.60;99.90
17348;DHT22;8791;50.876;4.342;2023-11-21T10:12:49;11.60;99.90
17348;DHT22;8791;50.876;4.342;2023-11-21T10:15:21;11.50;99.90
17348;DHT22;8791;50.876;4.342;2023-11-21T10:17:49;11.10;99.90
17348;DHT22;8791;50.876;4.342;2023-11-21T10:20:20;10.90;99.90
17348;DHT22;8791;50.876;4.342;2023-11-21T10:22:47;11.00;99.90
17348;DHT22;8791;50.876;4.342;2023-11-21T10:25:14;10.90;99.90
17348;DHT22;8791;50.876;4.342;2023-11-21T10:27:41;10.90;99.90
17348;DHT22;8791;50.876;4.342;2023-11-21T10:30:09;11.00;99.90
17348;DHT22;8791;50.876;4.342;2023-11-21T10:32:38;11.00;99.90
17348;DHT22;8791;50.876;4.342;2023-11-21T10:35:06;11.10;99.90
17348;DHT22;8791;50.876;4.342;2023-11-21T10:37:36;11.20;99.90
17348;DHT22;8791;50.876;4.342;2023-11-21T10:40:06;11.40;99.90
17348;DHT22;8791;50.876;4.342;2023-11-21T10:42:33;11.50;99.90
17348;DHT22;8791;50.876;4.342;2023-11-21T10:45:00;11.60;99.90
17348;DHT22;8791;50.876;4.342;2023-11-21T10:47:31;11.60;99.90
17348;DHT22;8791;50.876;4.342;2023-11-21T10:50:02;11.80;99.90
17348;DHT22;8791;50.876;4.342;2023-11-21T10:52:30;12.00;99.90
17348;DHT22;8791;50.876;4.342;2023-11-21T10:54:59;11.90;99.90
17348;DHT22;8791;50.876;4.342;2023-11-21T10:57:29;11.70;99.90
17348;DHT22;8791;50.876;4.342;2023-11-21T10:59:57;11.80;99.90
17348;DHT22;8791;50.876;4.342;2023-11-21T11:02:24;12.00;99.90
17348;DHT22;8791;50.876;4.342;2023-11-21T11:04:53;12.30;99.90
17348;DHT22;8791;50.876;4.342;2023-11-21T11:07:22;12.50;99.90
17348;DHT22;8791;50.876;4.342;2023-11-21T11:09:52;12.60;99.90
17348;DHT22;8791;50.876;4.342;2023-11-21T11:12:21;12.60;99.90
17348;DHT22;8791;50.876;4.342;2023-11-21T11:14:48;12.70;99.90
17348;DHT22;8791;50.876;4.342;2023-11-21T11:17:15;12.70;99.90
17348;DHT22;8791;50.876;4.342;2023-11-21T11:19:45;12.50;99.90
17348;DHT22;8791;50.876;4.342;2023-11-21T11:22:20;12.30;99.90
17348;DHT22;8791;50.876;4.342;2023-11-21T11:25:16;12.40;99.90
17348;DHT22;8791;50.876;4.342;2023-11-21T11:27:54;12.50;99.90
17348;DHT22;8791;50.876;4.342;2023-11-21T11:30:30;12.50;99.90
17348;DHT22;8791;50.876;4.342;2023-11-21T11:33:10;12.80;99.90
17348;DHT22;8791;50.876;4.342;2023-11-21T11:35:52;12.60;99.90
17348;DHT22;8791;50.876;4.342;2023-11-21T11:38:22;12.60;99.90
17348;DHT22;8791;50.876;4.342;2023-11-21T11:40:53;12.40;99.90
17348;DHT22;8791;50.876;4.342;2023-11-21T11:43:29;12.20;99.90
17348;DHT22;8791;50.876;4.342;2023-11-21T11:45:58;12.10;99.90
17348;DHT22;8791;50.876;4.342;2023-11-21T11:48:25;12.10;99.90
17348;DHT22;8791;50.876;4.342;2023-11-21T11:51:02;12.10;99.90
17348;DHT22;8791;50.876;4.342;2023-11-21T11:53:35;11.90;99.90
17348;DHT22;8791;50.876;4.342;2023-11-21T11:56:24;12.10;99.90
17348;DHT22;8791;50.876;4.342;2023-11-21T11:58:54;12.00;99.90
17348;DHT22;8791;50.876;4.342;2023-11-21T12:01:22;11.90;99.90
17348;DHT22;8791;50.876;4.342;2023-11-21T12:04:24;12.00;99.90
17348;DHT22;8791;50.876;4.342;2023-11-21T12:06:57;11.90;99.90
17348;DHT22;8791;50.876;4.342;2023-11-21T12:09:26;11.80;99.90
17348;DHT22;8791;50.876;4.342;2023-11-21T12:11:56;11.90;99.90
17348;DHT22;8791;50.876;4.342;2023-11-21T12:14:24;11.70;99.90
17348;DHT22;8791;50.876;4.342;2023-11-21T12:16:51;11.60;99.90
17348;DHT22;8791;50.876;4.342;2023-11-21T12:19:19;11.60;99.90
17348;DHT22;8791;50.876;4.342;2023-11-21T12:21:48;11.50;99.90
17348;DHT22;8791;50.876;4.342;2023-11-21T12:24:15;11.50;99.90
17348;DHT22;8791;50.876;4.342;2023-11-21T12:26:43;11.60;99.90
17348;DHT22;8791;50.876;4.342;2023-11-21T12:29:10;11.60;99.90
17348;DHT22;8791;50.876;4.342;2023-11-21T12:31:39;11.30;99.90
17348;DHT22;8791;50.876;4.342;2023-11-21T12:34:07;11.10;99.90
17348;DHT22;8791;50.876;4.342;2023-11-21T12:36:37;11.10;99.90
17348;DHT22;8791;50.876;4.342;2023-11-21T12:39:04;11.20;99.90
17348;DHT22;8791;50.876;4.342;2023-11-21T12:41:31;11.20;99.90
17348;DHT22;8791;50.876;4.342;2023-11-21T12:43:58;11.10;99.90
17348;DHT22;8791;50.876;4.342;2023-11-21T12:46:25;11.20;99.90
17348;DHT22;8791;50.876;4.342;2023-11-21T12:48:57;11.10;99.90
17348;DHT22;8791;50.876;4.342;2023-11-21T12:51:24;11.20;99.90
17348;DHT22;8791;50.876;4.342;2023-11-21T12:53:52;11.30;99.90
17348;DHT22;8791;50.876;4.342;2023-11-21T12:56:21;11.30;99.90
17348;DHT22;8791;50.876;4.342;2023-11-21T12:58:49;11.30;99.90
17348;DHT22;8791;50.876;4.342;2023-11-21T13:01:17;11.20;99.90
17348;DHT22;8791;50.876;4.342;2023-11-21T13:03:48;11.30;99.90
17348;DHT22;8791;50.876;4.342;2023-11-21T13:06:18;11.30;99.90
17348;DHT22;8791;50.876;4.342;2023-11-21T13:08:50;11.10;99.90
17348;DHT22;8791;50.876;4.342;2023-11-21T13:11:17;11.20;99.90
17348;DHT22;8791;50.876;4.342;2023-11-21T13:13:44;11.20;99.90
17348;DHT22;8791;50.876;4.342;2023-11-21T13:16:11;11.20;99.90
17348;DHT22;8791;50.876;4.342;2023-11-21T13:18:39;11.40;99.90
17348;DHT22;8791;50.876;4.342;2023-11-21T13:21:08;11.50;99.90
17348;DHT22;8791;50.876;4.342;2023-11-21T13:23:41;11.50;99.90
17348;DHT22;8791;50.876;4.342;2023-11-21T13:26:08;11.40;99.90
17348;DHT22;8791;50.876;4.342;2023-11-21T13:28:36;11.40;99.90
17348;DHT22;8791;50.876;4.342;2023-11-21T13:31:04;11.20;99.90
17348;DHT22;8791;50.876;4.342;2023-11-21T13:33:35;11.30;99.90
17348;DHT22;8791;50.876;4.342;2023-11-21T13:36:04;11.30;99.90
17348;DHT22;8791;50.876;4.342;2023-11-21T13:38:33;11.30;99.90
17348;DHT22;8791;50.876;4.342;2023-11-21T13:41:03;11.50;99.90
17348;DHT22;8791;50.876;4.342;2023-11-21T13:43:33;11.50;99.90
17348;DHT22;8791;50.876;4.342;2023-11-21T13:45:59;11.40;99.90
17348;DHT22;8791;50.876;4.342;2023-11-21T13:48:29;11.30;99.90
17348;DHT22;8791;50.876;4.342;2023-11-21T13:51:06;11.30;99.90
17348;DHT22;8791;50.876;4.342;2023-11-21T13:53:41;11.30;99.90
17348;DHT22;8791;50.876;4.342;2023-11-21T13:56:10;11.10;99.90
17348;DHT22;8791;50.876;4.342;2023-11-21T13:58:38;11.00;99.90
17348;DHT22;8791;50.876;4.342;2023-11-21T14:01:12;11.10;99.90
17348;DHT22;8791;50.876;4.342;2023-11-21T14:03:58;11.00;99.90
17348;DHT22;8791;50.876;4.342;2023-11-21T14:06:34;11.10;99.90
17348;DHT22;8791;50.876;4.342;2023-11-21T14:09:11;11.00;99.90
17348;DHT22;8791;50.876;4.342;2023-11-21T14:11:40;11.00;99.90
17348;DHT22;8791;50.876;4.342;2023-11-21T14:14:07;10.80;99.90
17348;DHT22;8791;50.876;4.342;2023-11-21T14:16:35;10.80;99.90
17348;DHT22;8791;50.876;4.342;2023-11-21T14:19:02;10.90;99.90
17348;DHT22;8791;50.876;4.342;2023-11-21T14:21:41;10.80;99.90
17348;DHT22;8791;50.876;4.342;2023-11-21T14:24:09;10.90;99.90
17348;DHT22;8791;50.876;4.342;2023-11-21T14:26:40;11.00;99.90
17348;DHT22;8791;50.876;4.342;2023-11-21T14:29:08;11.20;99.90
17348;DHT22;8791;50.876;4.342;2023-11-21T14:31:38;11.20;99.90
17348;DHT22;8791;50.876;4.342;2023-11-21T14:34:05;11.20;99.90
17348;DHT22;8791;50.876;4.342;2023-11-21T14:36:32;11.00;99.90
17348;DHT22;8791;50.876;4.342;2023-11-21T14:38:59;10.90;99.90
17348;DHT22;8791;50.876;4.342;2023-11-21T14:41:26;10.90;99.90
17348;DHT22;8791;50.876;4.342;2023-11-21T14:43:55;11.00;99.90
17348;DHT22;8791;50.876;4.342;2023-11-21T14:46:23;11.00;99.90
17348;DHT22;8791;50.876;4.342;2023-11-21T14:48:50;11.20;99.90
17348;DHT22;8791;50.876;4.342;2023-11-21T14:51:26;11.20;99.90
17348;DHT22;8791;50.876;4.342;2023-11-21T14:53:55;11.20;99.90
17348;DHT22;8791;50.876;4.342;2023-11-21T14:56:26;11.20;99.90
17348;DHT22;8791;50.876;4.342;2023-11-21T14:58:57;11.10;99.90
17348;DHT22;8791;50.876;4.342;2023-11-21T15:01:26;11.00;99.90
17348;DHT22;8791;50.876;4.342;2023-11-21T15:04:08;11.10;99.90
17348;DHT22;8791;50.876;4.342;2023-11-21T15:06:41;11.00;99.90
17348;DHT22;8791;50.876;4.342;2023-11-21T15:09:08;11.10;99.90
17348;DHT22;8791;50.876;4.342;2023-11-21T15:11:52;11.00;99.90
17348;DHT22;8791;50.876;4.342;2023-11-21T15:14:25;10.80;99.90
17348;DHT22;8791;50.876;4.342;2023-11-21T15:16:57;10.80;99.90
17348;DHT22;8791;50.876;4.342;2023-11-21T15:19:25;10.80;99.90
17348;DHT22;8791;50.876;4.342;2023-11-21T15:21:53;10.80;99.90
17348;DHT22;8791;50.876;4.342;2023-11-21T15:24:20;10.80;99.90
17348;DHT22;8791;50.876;4.342;2023-11-21T15:26:47;10.90;99.90
17348;DHT22;8791;50.876;4.342;2023-11-21T15:29:15;10.80;99.90
17348;DHT22;8791;50.876;4.342;2023-11-21T15:31:45;10.80;99.90
17348;DHT22;8791;50.876;4.342;2023-11-21T15:34:14;11.00;99.90
17348;DHT22;8791;50.876;4.342;2023-11-21T15:36:41;11.00;99.90
17348;DHT22;8791;50.876;4.342;2023-11-21T15:39:08;10.80;99.90
17348;DHT22;8791;50.876;4.342;2023-11-21T15:41:36;10.80;99.90
17348;DHT22;8791;50.876;4.342;2023-11-21T15:44:04;10.70;99.90
17348;DHT22;8791;50.876;4.342;2023-11-21T15:46:34;10.60;99.90
17348;DHT22;8791;50.876;4.342;2023-11-21T15:49:02;10.60;99.90
17348;DHT22;8791;50.876;4.342;2023-11-21T15:51:38;10.70;99.90
17348;DHT22;8791;50.876;4.342;2023-11-21T15:54:05;10.80;99.90
17348;DHT22;8791;50.876;4.342;2023-11-21T15:56:33;10.60;99.90